Time;durP1;ratioP1;P1;durP2;ratioP2;P2;SDS_P1;SDS_P2;PMS_P1;PMS_P2;Temp;Humidity;BMP_temperature;BMP_pressure;BME280_temperature;BME280_humidity;BME280_pressure;Samples;Min_cycle;Max_cycle;Signal;HPM_P1;HPM_P2
2022/11/14 00:21:05;;;;;;;;;;;;;;;;;;5806360;23;19938;-91
2022/11/14 00:29:43;;;;;;;;;;;;;;;;;;5880136;23;19954;-90
2022/11/14 01:11:04;;;;;;;;;;;;;;;;;;5610099;23;19949;-86
2022/11/14 01:13:51;;;;;;;;;;;;;;;;;;5832002;23;19952;-83
2022/11/14 01:19:22;;;;;;;;;;;;;;;;;;5379415;23;20961;-84
2022/11/14 01:22:10;;;;;;;;;;;;;;;;;;5408731;23;19937;-85
2022/11/14 01:24:57;;;;;;;;;;;;;;;;;;5051820;23;19910;-85
2022/11/14 01:27:44;;;;;;;;;;;;;;;;;;4999287;28;19922;-84
2022/11/14 01:30:39;;;;;;;;;;;;;;;;;;4999433;28;19947;-86
2022/11/14 01:33:29;;;;;;;;;;;;;;;;;;4986111;28;19902;-85
2022/11/14 01:36:16;;;;;;;;;;;;;;;;;;4985984;28;19918;-86
2022/11/14 01:39:01;;;;;;;;;;;;;;;;;;4999894;28;19945;-86
2022/11/14 01:47:22;;;;;;;;;;;;;;;;;;5325351;23;19910;-86
2022/11/14 01:50:09;;;;;;;;;;;;;;;;;;5083944;23;19952;-86
2022/11/14 01:52:54;;;;;;;;;;;;;;;;;;4999806;28;19909;-86
2022/11/14 01:55:39;;;;;;;;;;;;;;;;;;4998769;28;19906;-86
2022/11/14 01:58:24;;;;;;;;;;;;;;;;;;4999231;28;19970;-85
2022/11/14 02:01:06;;;;;;;;;;;;;;;;;;5020832;23;19910;-85
2022/11/14 02:03:53;;;;;;;;;;;;;;;;;;4985109;28;19922;-85
2022/11/14 02:06:38;;;;;;;;;;;;;;;;;;4998605;28;19898;-85
2022/11/14 02:09:22;;;;;;;;;;;;;;;;;;4998032;28;19922;-84
2022/11/14 02:12:06;;;;;;;;;;;;;;;;;;4984786;28;19957;-85
2022/11/14 02:14:56;;;;;;;;;;;;;;;;;;4998017;28;19902;-85
2022/11/14 02:17:43;;;;;;;;;;;;;;;;;;4998887;28;19925;-85
2022/11/14 02:20:43;;;;;;;;;;;;;;;;;;4998178;28;19903;-84
2022/11/14 02:23:28;;;;;;;;;;;;;;;;;;4983324;28;19914;-84
2022/11/14 02:26:15;;;;;;;;;;;;;;;;;;4983771;28;19934;-84
2022/11/14 02:29:03;;;;;;;;;;;;;;;;;;4997229;28;19918;-85
2022/11/14 02:31:50;;;;;;;;;;;;;;;;;;4997259;28;19929;-84
2022/11/14 02:34:34;;;;;;;;;;;;;;;;;;4996510;28;19918;-84
2022/11/14 02:37:21;;;;;;;;;;;;;;;;;;5000088;28;19898;-85
2022/11/14 02:40:05;;;;;;;;;;;;;;;;;;5001585;28;19914;-84
2022/11/14 02:42:55;;;;;;;;;;;;;;;;;;5002112;28;19921;-85
2022/11/14 02:45:43;;;;;;;;;;;;;;;;;;5002038;28;19918;-84
2022/11/14 02:48:30;;;;;;;;;;;;;;;;;;4987972;28;19902;-85
2022/11/14 02:51:15;;;;;;;;;;;;;;;;;;5002425;28;19922;-84
2022/11/14 02:54:00;;;;;;;;;;;;;;;;;;4988901;28;19919;-85
2022/11/14 02:56:46;;;;;;;;;;;;;;;;;;4989280;28;19910;-85
2022/11/14 02:59:32;;;;;;;;;;;;;;;;;;4988519;28;19937;-85
2022/11/14 03:02:18;;;;;;;;;;;;;;;;;;4987978;28;19918;-84
2022/11/14 03:05:02;;;;;;;;;;;;;;;;;;5002328;28;19949;-84
2022/11/14 03:07:50;;;;;;;;;;;;;;;;;;4988396;28;19922;-85
2022/11/14 03:10:35;;;;;;;;;;;;;;;;;;5001769;28;19918;-85
2022/11/14 03:13:19;;;;;;;;;;;;;;;;;;4988319;28;19914;-85
2022/11/14 03:16:10;;;;;;;;;;;;;;;;;;5001223;28;19908;-84
2022/11/14 03:18:55;;;;;;;;;;;;;;;;;;4983764;28;19914;-84
2022/11/14 03:21:39;;;;;;;;;;;;;;;;;;4997722;28;19914;-84
2022/11/14 03:24:26;;;;;;;;;;;;;;;;;;5000792;28;19914;-84
2022/11/14 03:27:17;;;;;;;;;;;;;;;;;;5001683;28;19914;-85
2022/11/14 03:30:04;;;;;;;;;;;;;;;;;;5002577;28;19961;-85
2022/11/14 03:32:49;;;;;;;;;;;;;;;;;;5025038;23;19933;-85
2022/11/14 03:38:16;;;;;;;;;;;;;;;;;;5875849;23;20232;-82
2022/11/14 03:41:09;;;;;;;;;;;;;;;;;;5470329;23;19926;-85
2022/11/14 03:44:06;;;;;;;;;;;;;;;;;;4981029;29;19938;-85
2022/11/14 03:46:55;;;;;;;;;;;;;;;;;;4982300;28;19903;-85
2022/11/14 03:49:43;;;;;;;;;;;;;;;;;;5242617;23;19942;-85
2022/11/14 04:00:50;;;;;;;;;;;;;;;;;;5243044;23;19918;-85
2022/11/14 04:03:34;;;;;;;;;;;;;;;;;;4988362;28;19902;-86
2022/11/14 04:17:06;;;;;;;;;;;;;;;;;;5890454;23;19918;-85
2022/11/14 04:19:53;;;;;;;;;;;;;;;;;;5000766;28;19902;-86
2022/11/14 04:22:37;;;;;;;;;;;;;;;;;;5382575;23;19914;-85
2022/11/14 04:25:22;;;;;;;;;;;;;;;;;;5000090;28;19909;-85
2022/11/14 04:28:06;;;;;;;;;;;;;;;;;;4986359;28;19933;-84
2022/11/14 04:30:50;;;;;;;;;;;;;;;;;;4986128;28;19933;-85
2022/11/14 04:33:35;;;;;;;;;;;;;;;;;;4986522;28;19902;-85
2022/11/14 04:36:19;;;;;;;;;;;;;;;;;;5001028;28;19914;-84
2022/11/14 04:39:03;;;;;;;;;;;;;;;;;;4987009;28;19919;-85
2022/11/14 04:41:48;;;;;;;;;;;;;;;;;;4986827;28;19922;-84
2022/11/14 04:44:32;;;;;;;;;;;;;;;;;;5000971;28;19969;-85
2022/11/14 04:47:16;;;;;;;;;;;;;;;;;;4987100;28;19910;-85
2022/11/14 04:50:01;;;;;;;;;;;;;;;;;;5000983;28;19918;-85
2022/11/14 04:52:45;;;;;;;;;;;;;;;;;;4987049;28;19909;-86
2022/11/14 04:55:31;;;;;;;;;;;;;;;;;;4999153;28;19918;-86
2022/11/14 04:58:15;;;;;;;;;;;;;;;;;;5521824;23;19933;-84
2022/11/14 05:01:02;;;;;;;;;;;;;;;;;;4987224;28;19970;-84
2022/11/14 05:03:47;;;;;;;;;;;;;;;;;;5000498;28;19965;-85
2022/11/14 05:06:31;;;;;;;;;;;;;;;;;;5000635;28;19902;-85
2022/11/14 05:11:52;;;;;;;;;;;;;;;;;;5201334;23;19910;-85
2022/11/14 05:14:36;;;;;;;;;;;;;;;;;;4986222;28;19918;-84
2022/11/14 05:17:20;;;;;;;;;;;;;;;;;;5000087;28;19990;-85
2022/11/14 05:20:07;;;;;;;;;;;;;;;;;;4986295;28;19914;-85
2022/11/14 05:22:52;;;;;;;;;;;;;;;;;;4986139;28;19909;-84
2022/11/14 05:25:39;;;;;;;;;;;;;;;;;;4999673;28;19902;-84
2022/11/14 05:28:26;;;;;;;;;;;;;;;;;;4986490;28;19945;-84
2022/11/14 05:31:16;;;;;;;;;;;;;;;;;;4999637;28;19907;-84
2022/11/14 05:34:03;;;;;;;;;;;;;;;;;;4986371;28;19918;-84
2022/11/14 05:36:51;;;;;;;;;;;;;;;;;;5226944;23;19910;-86
2022/11/14 05:39:35;;;;;;;;;;;;;;;;;;4985768;28;19918;-85
2022/11/14 05:42:22;;;;;;;;;;;;;;;;;;5163217;23;19933;-84
2022/11/14 05:45:06;;;;;;;;;;;;;;;;;;4966572;28;19961;-85
2022/11/14 05:47:57;;;;;;;;;;;;;;;;;;4980044;28;19929;-84
2022/11/14 05:50:35;;;;;;;;;;;;;;;;;;5034427;23;19929;-85
2022/11/14 05:53:20;;;;;;;;;;;;;;;;;;4983925;28;19937;-84
2022/11/14 05:56:08;;;;;;;;;;;;;;;;;;4998648;28;20002;-84
2022/11/14 05:58:55;;;;;;;;;;;;;;;;;;4983593;28;19918;-84
2022/11/14 06:01:39;;;;;;;;;;;;;;;;;;4997657;28;19905;-83
2022/11/14 06:04:27;;;;;;;;;;;;;;;;;;4998327;28;19902;-84
2022/11/14 06:07:11;;;;;;;;;;;;;;;;;;4998373;28;19918;-84
2022/11/14 06:10:03;;;;;;;;;;;;;;;;;;4985380;28;19989;-85
2022/11/14 06:15:33;;;;;;;;;;;;;;;;;;5562664;23;19926;-84
2022/11/14 06:20:59;;;;;;;;;;;;;;;;;;5238729;23;19914;-84
2022/11/14 06:23:52;;;;;;;;;;;;;;;;;;4985119;28;19950;-84
2022/11/14 06:26:37;;;;;;;;;;;;;;;;;;4985316;28;19910;-84
2022/11/14 06:29:21;;;;;;;;;;;;;;;;;;4999574;28;19917;-84
2022/11/14 06:34:47;;;;;;;;;;;;;;;;;;4977960;28;19910;-84
2022/11/14 06:37:31;;;;;;;;;;;;;;;;;;4965919;28;19933;-83
2022/11/14 06:40:16;;;;;;;;;;;;;;;;;;4966056;28;19930;-83
2022/11/14 06:43:07;;;;;;;;;;;;;;;;;;4979455;28;19946;-84
2022/11/14 06:46:02;;;;;;;;;;;;;;;;;;4978308;29;19915;-83
2022/11/14 06:48:46;;;;;;;;;;;;;;;;;;4979094;28;19986;-83
2022/11/14 06:51:31;;;;;;;;;;;;;;;;;;4976685;29;19922;-83
2022/11/14 06:54:21;;;;;;;;;;;;;;;;;;4974884;28;19915;-83
2022/11/14 06:57:08;;;;;;;;;;;;;;;;;;4975056;28;19914;-83
2022/11/14 06:59:53;;;;;;;;;;;;;;;;;;4977438;28;19919;-83
2022/11/14 07:02:37;;;;;;;;;;;;;;;;;;4975197;28;19938;-82
2022/11/14 07:05:21;;;;;;;;;;;;;;;;;;4973765;29;19925;-82
2022/11/14 07:08:06;;;;;;;;;;;;;;;;;;4971096;29;19910;-82
2022/11/14 08:16:27;;;;;;;;;;;;;;;;;;5651824;23;19985;-90
2022/11/14 08:19:23;;;;;;;;;;;;;;;;;;5466004;23;19942;-91
2022/11/14 08:22:16;;;;;;;;;;;;;;;;;;5274183;23;19974;-92
2022/11/14 08:25:06;;;;;;;;;;;;;;;;;;5205758;23;19937;-93
2022/11/14 08:27:56;;;;;;;;;;;;;;;;;;5100744;23;19911;-94
2022/11/14 08:30:57;;;;;;;;;;;;;;;;;;5164101;23;19926;-92
2022/11/14 08:33:49;;;;;;;;;;;;;;;;;;5021914;23;19931;-93
2022/11/14 08:36:43;;;;;;;;;;;;;;;;;;5129599;23;19926;-94
2022/11/14 08:40:05;;;;;;;;;;;;;;;;;;;;;
2022/11/14 08:42:50;;;;;;;;;;;;;;;;;;4995143;23;19933;-94
2022/11/14 08:45:45;;;;;;;;;;;;;;;;;;5078086;23;19930;-94
2022/11/14 08:48:35;;;;;;;;;;;;;;;;;;4962776;29;19969;-95
2022/11/14 08:51:19;;;;;;;;;;;;;;;;;;4960571;29;20005;-95
2022/11/14 08:54:03;;;;;;;;;;;;;;;;;;4945713;29;19921;-93
2022/11/14 08:56:47;;;;;;;;;;;;;;;;;;4947188;29;19914;-95
2022/11/14 08:59:32;;;;;;;;;;;;;;;;;;4945928;29;20024;-94
2022/11/14 09:02:17;;;;;;;;;;;;;;;;;;4945837;29;19915;-96
2022/11/14 09:05:01;;;;;;;;;;;;;;;;;;4947596;29;19925;-94
2022/11/14 09:07:45;;;;;;;;;;;;;;;;;;4943564;29;19918;-95
2022/11/14 09:10:30;;;;;;;;;;;;;;;;;;4944289;29;19918;-93
2022/11/14 09:13:14;;;;;;;;;;;;;;;;;;4945513;29;19942;-94
2022/11/14 09:15:58;;;;;;;;;;;;;;;;;;4942723;29;19922;-95
2022/11/14 09:18:42;;;;;;;;;;;;;;;;;;4943320;29;19937;-95
2022/11/14 09:21:27;;;;;;;;;;;;;;;;;;4943869;29;20009;-94
2022/11/14 09:24:19;;;;;;;;;;;;;;;;;;4943827;29;19915;-94
2022/11/14 09:27:03;;;;;;;;;;;;;;;;;;4943675;29;19914;-94
2022/11/14 09:29:47;;;;;;;;;;;;;;;;;;4942695;29;19918;-95
2022/11/14 09:32:31;;;;;;;;;;;;;;;;;;4943170;29;19970;-95
2022/11/14 09:35:16;;;;;;;;;;;;;;;;;;4942857;29;19918;-95
2022/11/14 09:38:00;;;;;;;;;;;;;;;;;;4942234;29;20350;-95
2022/11/14 09:40:46;;;;;;;;;;;;;;;;;;4943743;29;19914;-95
2022/11/14 09:43:31;;;;;;;;;;;;;;;;;;4942419;29;19914;-95
2022/11/14 09:46:15;;;;;;;;;;;;;;;;;;4942477;29;20016;-95
2022/11/14 09:48:59;;;;;;;;;;;;;;;;;;4942849;29;19918;-92
2022/11/14 09:51:43;;;;;;;;;;;;;;;;;;4942254;29;19914;-94
2022/11/14 09:54:27;;;;;;;;;;;;;;;;;;4943202;29;19969;-95
2022/11/14 09:57:11;;;;;;;;;;;;;;;;;;4943975;29;19914;-93
2022/11/14 09:59:55;;;;;;;;;;;;;;;;;;4943396;29;19919;-95
2022/11/14 10:02:40;;;;;;;;;;;;;;;;;;4942348;29;19914;-94
2022/11/14 10:05:27;;;;;;;;;;;;;;;;;;4942523;29;20006;-95
2022/11/14 10:08:11;;;;;;;;;;;;;;;;;;4950769;29;19918;-92
2022/11/14 10:11:04;;;;;;;;;;;;;;;;;;4944566;29;19918;-94
2022/11/14 10:13:51;;;;;;;;;;;;;;;;;;4942952;29;19954;-93
2022/11/14 10:16:35;;;;;;;;;;;;;;;;;;4944174;29;19925;-95
2022/11/14 10:19:25;;;;;;;;;;;;;;;;;;4947020;29;19919;-95
2022/11/14 10:22:09;;;;;;;;;;;;;;;;;;4942029;29;20005;-93
2022/11/14 10:24:53;;;;;;;;;;;;;;;;;;4942774;29;19914;-94
2022/11/14 10:27:40;;;;;;;;;;;;;;;;;;4942872;29;19922;-93
2022/11/14 10:30:24;;;;;;;;;;;;;;;;;;4941357;29;19946;-94
2022/11/14 10:33:08;;;;;;;;;;;;;;;;;;4941098;29;19921;-93
2022/11/14 10:35:52;;;;;;;;;;;;;;;;;;4941445;29;19914;-93
2022/11/14 10:38:40;;;;;;;;;;;;;;;;;;4941183;29;19977;-93
2022/11/14 10:41:24;;;;;;;;;;;;;;;;;;4955326;29;19937;-94
2022/11/14 10:44:08;;;;;;;;;;;;;;;;;;4955772;29;19914;-94
2022/11/14 10:46:52;;;;;;;;;;;;;;;;;;4940936;29;19915;-94
2022/11/14 10:49:37;;;;;;;;;;;;;;;;;;4940838;29;20010;-95
2022/11/14 10:52:21;;;;;;;;;;;;;;;;;;4941869;29;19915;-94
2022/11/14 10:55:08;;;;;;;;;;;;;;;;;;4941559;29;19957;-94
2022/11/14 10:57:56;;;;;;;;;;;;;;;;;;4944551;29;19925;-95
2022/11/14 11:00:40;;;;;;;;;;;;;;;;;;4947244;29;20009;-94
2022/11/14 11:03:31;;;;;;;;;;;;;;;;;;4946314;29;19914;-95
2022/11/14 11:06:15;;;;;;;;;;;;;;;;;;4945177;29;19922;-95
2022/11/14 11:12:02;;;;;;;;;;;;;;;;;;4962613;29;19921;-95
2022/11/14 11:14:46;;;;;;;;;;;;;;;;;;4947744;29;19997;-95
2022/11/14 11:17:30;;;;;;;;;;;;;;;;;;4948537;29;19919;-95
2022/11/14 11:20:15;;;;;;;;;;;;;;;;;;4951370;29;19921;-93
2022/11/14 11:22:59;;;;;;;;;;;;;;;;;;4965321;29;19915;-94
2022/11/14 11:25:43;;;;;;;;;;;;;;;;;;4954855;29;20293;-93
2022/11/14 11:28:29;;;;;;;;;;;;;;;;;;4945848;29;19957;-93
2022/11/14 11:31:13;;;;;;;;;;;;;;;;;;4959293;29;19993;-93
2022/11/14 11:34:05;;;;;;;;;;;;;;;;;;4945812;29;19914;-93
2022/11/14 11:36:49;;;;;;;;;;;;;;;;;;4947016;29;19914;-94
2022/11/14 11:39:33;;;;;;;;;;;;;;;;;;4944723;29;19914;-93
2022/11/14 11:42:19;;;;;;;;;;;;;;;;;;4959203;29;19918;-95
2022/11/14 11:45:03;;;;;;;;;;;;;;;;;;4944415;29;20400;-94
2022/11/14 11:47:47;;;;;;;;;;;;;;;;;;4944782;29;19943;-94
2022/11/14 11:50:31;;;;;;;;;;;;;;;;;;4944332;29;19914;-94
2022/11/14 11:53:15;;;;;;;;;;;;;;;;;;4944274;29;20005;-93
2022/11/14 11:55:59;;;;;;;;;;;;;;;;;;4945089;29;19914;-94
2022/11/14 11:58:44;;;;;;;;;;;;;;;;;;4943857;29;19938;-93
2022/11/14 12:01:37;;;;;;;;;;;;;;;;;;4944511;29;19914;-94
2022/11/14 12:04:24;;;;;;;;;;;;;;;;;;4957365;29;19918;-94
2022/11/14 12:07:08;;;;;;;;;;;;;;;;;;4942746;28;19915;-93
2022/11/14 12:09:52;;;;;;;;;;;;;;;;;;4944400;29;19969;-94
2022/11/14 12:12:36;;;;;;;;;;;;;;;;;;4957452;29;20017;-94
2022/11/14 12:15:20;;;;;;;;;;;;;;;;;;4958488;29;19946;-94
2022/11/14 12:18:04;;;;;;;;;;;;;;;;;;4958049;29;19953;-94
2022/11/14 12:20:48;;;;;;;;;;;;;;;;;;4957590;29;19918;-93
2022/11/14 12:23:32;;;;;;;;;;;;;;;;;;4958414;29;19915;-93
2022/11/14 12:26:16;;;;;;;;;;;;;;;;;;4946946;29;19997;-92
2022/11/14 12:29:01;;;;;;;;;;;;;;;;;;4966412;29;20394;-93
2022/11/14 12:31:45;;;;;;;;;;;;;;;;;;4950655;29;20070;-92
2022/11/14 12:34:29;;;;;;;;;;;;;;;;;;4960272;29;19978;-91
2022/11/14 12:37:13;;;;;;;;;;;;;;;;;;4943884;29;19915;-92
2022/11/14 12:39:57;;;;;;;;;;;;;;;;;;4957540;29;19914;-92
2022/11/14 12:42:41;;;;;;;;;;;;;;;;;;4956781;29;19923;-91
2022/11/14 12:45:26;;;;;;;;;;;;;;;;;;4943639;29;19923;-91
2022/11/14 12:48:10;;;;;;;;;;;;;;;;;;4958076;29;20033;-91
2022/11/14 12:50:54;;;;;;;;;;;;;;;;;;4944196;29;19921;-91
2022/11/14 12:53:41;;;;;;;;;;;;;;;;;;4944045;29;19997;-90
2022/11/14 12:56:25;;;;;;;;;;;;;;;;;;4943118;29;19985;-88
2022/11/14 12:59:10;;;;;;;;;;;;;;;;;;4960704;29;19923;-92
2022/11/14 13:01:55;;;;;;;;;;;;;;;;;;4950143;29;19914;-90
2022/11/14 13:04:39;;;;;;;;;;;;;;;;;;4951604;29;19914;-90
2022/11/14 13:07:27;;;;;;;;;;;;;;;;;;4961109;29;19914;-89
2022/11/14 13:10:11;;;;;;;;;;;;;;;;;;4945159;29;19934;-90
2022/11/14 13:22:04;;;;;;;;;;;;;;;;;;4936867;29;19949;-82
2022/11/14 13:24:47;;;;;;;;;;;;;;;;;;4951767;29;19915;-81
2022/11/14 13:27:31;;;;;;;;;;;;;;;;;;4923094;29;19914;-81
2022/11/14 13:30:16;;;;;;;;;;;;;;;;;;4951858;29;19961;-81
2022/11/14 13:33:00;;;;;;;;;;;;;;;;;;4935055;29;19944;-81
2022/11/14 13:35:44;;;;;;;;;;;;;;;;;;4921872;29;19972;-81
2022/11/14 13:38:28;;;;;;;;;;;;;;;;;;4950590;29;19915;-81
2022/11/14 13:41:12;;;;;;;;;;;;;;;;;;4935128;29;19926;-81
2022/11/14 13:43:56;;;;;;;;;;;;;;;;;;4950973;29;19954;-81
2022/11/14 13:46:43;;;;;;;;;;;;;;;;;;4935580;29;19915;-81
2022/11/14 13:49:27;;;;;;;;;;;;;;;;;;4935737;29;19923;-82
2022/11/14 13:52:11;;;;;;;;;;;;;;;;;;4935930;29;19915;-81
2022/11/14 13:54:55;;;;;;;;;;;;;;;;;;4950813;29;19921;-79
2022/11/14 13:57:41;;;;;;;;;;;;;;;;;;4935685;29;19973;-81
2022/11/14 14:00:25;;;;;;;;;;;;;;;;;;4934633;29;20005;-81
2022/11/14 14:03:09;;;;;;;;;;;;;;;;;;4935088;29;19914;-82
2022/11/14 14:05:53;;;;;;;;;;;;;;;;;;4934564;29;19919;-81
2022/11/14 14:08:37;;;;;;;;;;;;;;;;;;4935256;29;19919;-82
2022/11/14 14:11:21;;;;;;;;;;;;;;;;;;4934465;29;19915;-81
2022/11/14 14:14:05;;;;;;;;;;;;;;;;;;4935880;29;20386;-81
2022/11/14 14:16:49;;;;;;;;;;;;;;;;;;4935466;29;19915;-82
2022/11/14 14:19:33;;;;;;;;;;;;;;;;;;4935666;29;19926;-82
2022/11/14 14:22:17;;;;;;;;;;;;;;;;;;4934522;29;19931;-82
2022/11/14 14:25:01;;;;;;;;;;;;;;;;;;4935371;29;19914;-82
2022/11/14 14:31:02;;;;;;;;;;;;;;;;;;4932523;29;20378;-82
2022/11/14 14:33:46;;;;;;;;;;;;;;;;;;4941294;29;20018;-82
2022/11/14 14:36:30;;;;;;;;;;;;;;;;;;4940054;29;19922;-82
2022/11/14 14:39:15;;;;;;;;;;;;;;;;;;4941088;29;19915;-82
2022/11/14 14:41:59;;;;;;;;;;;;;;;;;;4940995;29;19914;-82
2022/11/14 14:44:46;;;;;;;;;;;;;;;;;;4940784;29;19993;-82
2022/11/14 14:47:30;;;;;;;;;;;;;;;;;;4941329;29;20053;-82
2022/11/14 14:50:14;;;;;;;;;;;;;;;;;;4941200;29;20401;-82
2022/11/14 14:52:57;;;;;;;;;;;;;;;;;;4940883;29;19914;-81
2022/11/14 14:55:42;;;;;;;;;;;;;;;;;;4941229;29;19925;-83
2022/11/14 14:58:26;;;;;;;;;;;;;;;;;;4941101;29;19965;-83
2022/11/14 15:01:10;;;;;;;;;;;;;;;;;;4941135;29;20374;-83
2022/11/14 15:03:54;;;;;;;;;;;;;;;;;;4940165;29;19919;-83
2022/11/14 15:06:38;;;;;;;;;;;;;;;;;;4940361;29;19958;-83
2022/11/14 15:09:22;;;;;;;;;;;;;;;;;;4941233;29;19966;-83
2022/11/14 15:12:06;;;;;;;;;;;;;;;;;;4939837;29;19982;-83
2022/11/14 15:14:49;;;;;;;;;;;;;;;;;;4940133;29;19922;-84
2022/11/14 15:17:34;;;;;;;;;;;;;;;;;;4941088;29;19914;-83
2022/11/14 15:20:17;;;;;;;;;;;;;;;;;;4955786;28;19915;-83
2022/11/14 15:23:02;;;;;;;;;;;;;;;;;;4940775;29;19921;-83
2022/11/14 15:25:45;;;;;;;;;;;;;;;;;;4956268;29;19921;-83
2022/11/14 15:28:30;;;;;;;;;;;;;;;;;;4926151;29;19945;-83
2022/11/14 15:31:14;;;;;;;;;;;;;;;;;;4940786;29;20386;-83
2022/11/14 15:33:58;;;;;;;;;;;;;;;;;;4942343;29;19914;-83
2022/11/14 15:36:42;;;;;;;;;;;;;;;;;;4941084;29;19969;-84
2022/11/14 15:39:26;;;;;;;;;;;;;;;;;;4955645;29;19954;-83
2022/11/14 15:42:10;;;;;;;;;;;;;;;;;;4924745;29;19921;-82
2022/11/14 15:44:54;;;;;;;;;;;;;;;;;;4937904;29;20001;-83
2022/11/14 15:47:38;;;;;;;;;;;;;;;;;;4937768;29;19962;-83
2022/11/14 15:50:22;;;;;;;;;;;;;;;;;;4937899;29;19919;-83
2022/11/14 15:53:06;;;;;;;;;;;;;;;;;;4937393;29;20413;-83
2022/11/14 15:55:50;;;;;;;;;;;;;;;;;;4936278;29;19925;-83
2022/11/14 15:58:34;;;;;;;;;;;;;;;;;;4937613;29;19922;-84
2022/11/14 16:01:18;;;;;;;;;;;;;;;;;;4936153;29;19962;-83
2022/11/14 16:04:02;;;;;;;;;;;;;;;;;;4937363;29;19971;-83
2022/11/14 16:06:46;;;;;;;;;;;;;;;;;;4937056;29;19914;-82
2022/11/14 16:09:30;;;;;;;;;;;;;;;;;;4937412;29;19919;-83
2022/11/14 16:12:14;;;;;;;;;;;;;;;;;;4952011;29;20295;-84
2022/11/14 16:15:00;;;;;;;;;;;;;;;;;;4936636;29;19930;-83
2022/11/14 16:17:45;;;;;;;;;;;;;;;;;;4936932;29;19915;-83
2022/11/14 16:20:36;;;;;;;;;;;;;;;;;;4936100;29;19922;-84
2022/11/14 16:23:20;;;;;;;;;;;;;;;;;;4951848;29;19922;-82
2022/11/14 16:26:04;;;;;;;;;;;;;;;;;;4937116;29;19994;-83
2022/11/14 16:28:48;;;;;;;;;;;;;;;;;;4937623;29;19918;-82
2022/11/14 16:31:32;;;;;;;;;;;;;;;;;;4936405;29;19918;-82
2022/11/14 16:34:16;;;;;;;;;;;;;;;;;;4936378;29;20390;-83
2022/11/14 16:37:02;;;;;;;;;;;;;;;;;;4936583;29;20414;-83
2022/11/14 16:39:46;;;;;;;;;;;;;;;;;;4951473;29;20013;-83
2022/11/14 16:42:31;;;;;;;;;;;;;;;;;;4935483;29;19915;-83
2022/11/14 16:45:21;;;;;;;;;;;;;;;;;;4937216;29;19915;-83
2022/11/14 16:48:05;;;;;;;;;;;;;;;;;;4937062;29;20394;-82
2022/11/14 16:50:49;;;;;;;;;;;;;;;;;;4940929;29;19974;-82
2022/11/14 16:53:33;;;;;;;;;;;;;;;;;;4954922;29;19923;-84
2022/11/14 16:56:17;;;;;;;;;;;;;;;;;;4951993;29;20294;-84
2022/11/14 16:59:01;;;;;;;;;;;;;;;;;;4937495;29;20415;-84
2022/11/14 17:01:47;;;;;;;;;;;;;;;;;;4936694;29;19914;-84
2022/11/14 17:04:30;;;;;;;;;;;;;;;;;;4940351;29;19961;-83
2022/11/14 17:07:14;;;;;;;;;;;;;;;;;;4942594;29;19938;-82
2022/11/14 17:09:59;;;;;;;;;;;;;;;;;;4944023;29;19973;-84
2022/11/14 17:12:43;;;;;;;;;;;;;;;;;;4935810;29;19939;-84
2022/11/14 17:15:27;;;;;;;;;;;;;;;;;;4937081;29;19915;-84
2022/11/14 17:18:11;;;;;;;;;;;;;;;;;;4924097;29;20255;-85
2022/11/14 17:20:55;;;;;;;;;;;;;;;;;;4936683;29;20414;-85
2022/11/14 17:23:39;;;;;;;;;;;;;;;;;;4939245;29;19914;-84
2022/11/14 17:26:23;;;;;;;;;;;;;;;;;;4954327;29;19981;-84
2022/11/14 17:29:07;;;;;;;;;;;;;;;;;;4935854;29;19918;-84
2022/11/14 17:31:51;;;;;;;;;;;;;;;;;;4951370;29;19997;-85
2022/11/14 17:34:35;;;;;;;;;;;;;;;;;;4936011;29;19915;-83
2022/11/14 17:37:19;;;;;;;;;;;;;;;;;;4921659;29;19938;-84
2022/11/14 17:40:04;;;;;;;;;;;;;;;;;;4936196;29;19954;-85
2022/11/14 17:42:47;;;;;;;;;;;;;;;;;;4950564;29;20297;-84
2022/11/14 17:45:35;;;;;;;;;;;;;;;;;;4950816;29;20040;-84
2022/11/14 17:48:19;;;;;;;;;;;;;;;;;;4950680;29;20264;-84
2022/11/14 17:51:03;;;;;;;;;;;;;;;;;;4951077;29;19919;-85
2022/11/14 17:53:47;;;;;;;;;;;;;;;;;;4950077;29;20403;-84
2022/11/14 17:56:31;;;;;;;;;;;;;;;;;;4935684;29;20382;-83
2022/11/14 17:59:15;;;;;;;;;;;;;;;;;;4936117;29;20013;-84
2022/11/14 18:01:59;;;;;;;;;;;;;;;;;;4935968;29;19914;-83
2022/11/14 18:04:43;;;;;;;;;;;;;;;;;;4934434;29;19941;-84
2022/11/14 18:07:27;;;;;;;;;;;;;;;;;;4936466;29;19914;-84
2022/11/14 18:10:11;;;;;;;;;;;;;;;;;;4935260;29;19926;-84
2022/11/14 18:12:54;;;;;;;;;;;;;;;;;;4950262;29;19919;-84
2022/11/14 18:15:39;;;;;;;;;;;;;;;;;;4934557;29;19915;-84
2022/11/14 18:18:23;;;;;;;;;;;;;;;;;;4935858;29;20010;-83
2022/11/14 18:21:07;;;;;;;;;;;;;;;;;;4934490;29;19946;-83
2022/11/14 18:23:51;;;;;;;;;;;;;;;;;;4936213;29;19915;-81
2022/11/14 18:26:35;;;;;;;;;;;;;;;;;;4935133;29;19994;-82
2022/11/14 18:29:19;;;;;;;;;;;;;;;;;;4936596;29;20022;-84
2022/11/14 18:32:03;;;;;;;;;;;;;;;;;;4937037;29;19942;-84
2022/11/14 18:34:47;;;;;;;;;;;;;;;;;;4936970;29;19974;-83
2022/11/14 18:37:31;;;;;;;;;;;;;;;;;;4936002;29;19922;-84
2022/11/14 18:40:15;;;;;;;;;;;;;;;;;;4936022;29;19969;-85
2022/11/14 18:42:59;;;;;;;;;;;;;;;;;;4935817;29;19915;-85
2022/11/14 18:45:43;;;;;;;;;;;;;;;;;;4950978;29;19919;-84
2022/11/14 18:48:27;;;;;;;;;;;;;;;;;;4936244;29;19962;-81
2022/11/14 18:51:11;;;;;;;;;;;;;;;;;;4936213;29;19949;-84
2022/11/14 18:53:55;;;;;;;;;;;;;;;;;;4937683;29;19922;-84
2022/11/14 18:56:39;;;;;;;;;;;;;;;;;;4935851;29;19915;-83
2022/11/14 18:59:22;;;;;;;;;;;;;;;;;;4935996;29;20290;-81
2022/11/14 19:02:06;;;;;;;;;;;;;;;;;;4934903;29;19915;-82
2022/11/14 19:04:50;;;;;;;;;;;;;;;;;;4935581;29;19918;-83
2022/11/14 19:07:34;;;;;;;;;;;;;;;;;;4934731;29;19915;-83
2022/11/14 19:10:18;;;;;;;;;;;;;;;;;;4935074;29;19973;-83
2022/11/14 19:13:02;;;;;;;;;;;;;;;;;;4934176;29;20413;-83
2022/11/14 19:15:46;;;;;;;;;;;;;;;;;;4934953;29;19919;-83
2022/11/14 19:18:30;;;;;;;;;;;;;;;;;;4936928;29;19915;-84
2022/11/14 19:21:14;;;;;;;;;;;;;;;;;;4938465;29;19921;-84
2022/11/14 19:23:58;;;;;;;;;;;;;;;;;;4938261;29;20414;-84
2022/11/14 19:26:42;;;;;;;;;;;;;;;;;;4939002;29;20450;-84
2022/11/14 19:29:26;;;;;;;;;;;;;;;;;;4938535;29;19966;-82
2022/11/14 19:32:10;;;;;;;;;;;;;;;;;;4938370;29;19915;-83
2022/11/14 19:34:54;;;;;;;;;;;;;;;;;;4953064;29;20276;-83
2022/11/14 19:37:38;;;;;;;;;;;;;;;;;;4938350;29;19962;-82
2022/11/14 19:40:21;;;;;;;;;;;;;;;;;;4937192;29;19962;-83
2022/11/14 19:43:07;;;;;;;;;;;;;;;;;;4937939;29;19931;-81
2022/11/14 19:45:51;;;;;;;;;;;;;;;;;;4938162;29;20046;-83
2022/11/14 19:48:35;;;;;;;;;;;;;;;;;;4938027;29;19971;-82
2022/11/14 19:51:21;;;;;;;;;;;;;;;;;;4937913;29;19918;-81
2022/11/14 19:54:05;;;;;;;;;;;;;;;;;;4937961;29;19914;-83
2022/11/14 19:56:48;;;;;;;;;;;;;;;;;;4937903;29;20387;-84
2022/11/14 19:59:32;;;;;;;;;;;;;;;;;;4937655;29;19921;-83
2022/11/14 20:02:16;;;;;;;;;;;;;;;;;;4937570;29;19918;-85
2022/11/14 20:05:00;;;;;;;;;;;;;;;;;;4938040;29;19914;-84
2022/11/14 20:07:44;;;;;;;;;;;;;;;;;;4937864;29;19938;-84
2022/11/14 20:10:46;;;;;;;;;;;;;;;;;;4937656;29;19922;-83
2022/11/14 20:13:30;;;;;;;;;;;;;;;;;;4951921;29;19923;-84
2022/11/14 20:16:16;;;;;;;;;;;;;;;;;;4952456;29;19921;-83
2022/11/14 20:19:00;;;;;;;;;;;;;;;;;;4937389;29;19922;-84
2022/11/14 20:21:44;;;;;;;;;;;;;;;;;;4952958;29;19921;-83
2022/11/14 20:24:31;;;;;;;;;;;;;;;;;;4952762;29;19963;-84
2022/11/14 20:27:15;;;;;;;;;;;;;;;;;;4936171;29;19937;-83
2022/11/14 20:29:59;;;;;;;;;;;;;;;;;;4922507;29;19919;-83
2022/11/14 20:32:43;;;;;;;;;;;;;;;;;;4936117;29;19926;-83
2022/11/14 20:35:27;;;;;;;;;;;;;;;;;;4937214;29;19914;-84
2022/11/14 20:38:11;;;;;;;;;;;;;;;;;;4937141;29;19962;-82
2022/11/14 20:40:55;;;;;;;;;;;;;;;;;;4936236;29;19915;-84
2022/11/14 20:43:39;;;;;;;;;;;;;;;;;;4939950;29;19946;-83
2022/11/14 20:46:23;;;;;;;;;;;;;;;;;;4938506;29;20470;-84
2022/11/14 20:49:07;;;;;;;;;;;;;;;;;;4937366;29;19919;-84
2022/11/14 20:51:51;;;;;;;;;;;;;;;;;;4937414;29;19946;-85
2022/11/14 20:54:34;;;;;;;;;;;;;;;;;;4937167;29;19915;-83
2022/11/14 20:57:18;;;;;;;;;;;;;;;;;;4936179;29;19962;-82
2022/11/14 21:00:02;;;;;;;;;;;;;;;;;;4951764;29;20005;-85
2022/11/14 21:02:47;;;;;;;;;;;;;;;;;;4936911;29;19918;-84
2022/11/14 21:05:30;;;;;;;;;;;;;;;;;;4922488;29;19915;-82
2022/11/14 21:08:18;;;;;;;;;;;;;;;;;;4922059;29;20005;-83
2022/11/14 21:11:01;;;;;;;;;;;;;;;;;;4935659;29;19961;-84
2022/11/14 21:13:54;;;;;;;;;;;;;;;;;;4936645;29;19926;-83
2022/11/14 21:16:39;;;;;;;;;;;;;;;;;;4938683;29;20009;-81
2022/11/14 21:19:24;;;;;;;;;;;;;;;;;;4939957;29;19922;-83
2022/11/14 21:22:07;;;;;;;;;;;;;;;;;;4937112;29;19915;-83
2022/11/14 21:24:51;;;;;;;;;;;;;;;;;;4936078;29;19958;-85
2022/11/14 21:27:35;;;;;;;;;;;;;;;;;;4936128;29;19946;-84
2022/11/14 21:30:19;;;;;;;;;;;;;;;;;;4935930;29;19919;-84
2022/11/14 21:33:03;;;;;;;;;;;;;;;;;;4934819;29;19925;-84
2022/11/14 21:35:47;;;;;;;;;;;;;;;;;;4935008;29;19915;-85
2022/11/14 21:38:31;;;;;;;;;;;;;;;;;;4935772;29;19926;-84
2022/11/14 21:41:15;;;;;;;;;;;;;;;;;;4935277;29;19922;-85
2022/11/14 21:43:59;;;;;;;;;;;;;;;;;;4935845;29;19919;-85
2022/11/14 21:46:45;;;;;;;;;;;;;;;;;;4935860;29;19919;-82
2022/11/14 21:49:30;;;;;;;;;;;;;;;;;;4950883;29;19926;-84
2022/11/14 21:52:14;;;;;;;;;;;;;;;;;;4935812;29;20337;-83
2022/11/14 21:54:58;;;;;;;;;;;;;;;;;;4951085;29;19970;-84